British Robin — MGSH7 — position and weather

sailwx.info

Track history (hours):
 
Tides and Currents Weather Stations Pressure Air Temp Water Temp Dewpoint Dewpoint Depression Visibility Wind Speed Wind Dir Waves Ship Positions

British Robin

Last reported at 2018-Jul-23 00:07 UTC. Time now 2018-Jul-23 00:27 UTC.
Position N 49°19' W 123°11'.

Length 251.5 m; beam 43.9 m; draft 15 m.

Type: Tanker. MMSI: 232156000.

Date/timePositionNaut miles runAvg speedWind from/ knotsBaromVisibWave heightAir tempDewpointWater temp
2018-Jul-23 00:07N 49°19' W 123°11'2 6.9
2018-Jul-22 23:48N 49°19' W 123°08'2 8.2
2018-Jul-22 23:30N 49°18' W 123°04'3 5.3
2018-Jul-22 22:59N 49°18' W 122°60'1 3.0
2018-Jul-22 22:30N 49°18' W 122°58'1 1.2
2018-Jul-22 21:32N 49°19' W 122°56'0 0.0
2018-Jul-22 21:20N 49°19' W 122°56'0 0.0
2018-Jul-22 20:08N 49°19' W 122°56'0 0.1
2018-Jul-22 19:56N 49°19' W 122°56'0 0.0
2018-Jul-22 18:44N 49°19' W 122°56'0 0.1
2018-Jul-22 18:26N 49°19' W 122°56'0 0.0
2018-Jul-22 17:56N 49°19' W 122°56'0 0.1
2018-Jul-22 17:20N 49°18' W 122°57'0 0.1
2018-Jul-22 16:32N 49°18' W 122°57'0 0.1
2018-Jul-22 16:28N 49°18' W 122°57'1 1.6
2018-Jul-22 15:58N 49°18' W 122°57'0 0.0
2018-Jul-21 03:31N 49°17' W 122°57'0 0.0
2018-Jul-21 03:01N 49°17' W 122°57'0 0.0
2018-Jul-21 02:37N 49°17' W 122°57'0 0.0
2018-Jul-21 02:25N 49°17' W 122°57'0 0.0
2018-Jul-21 01:49N 49°17' W 122°57'0 0.0
2018-Jul-21 00:31N 49°17' W 122°57'0 0.0
2018-Jul-21 00:07N 49°17' W 122°57'0 0.0
2018-Jul-20 22:01N 49°17' W 122°57'0 0.0
2018-Jul-20 19:55N 49°17' W 122°57'0 0.0
2018-Jul-20 19:25N 49°17' W 122°57'0 0.0
2018-Jul-20 18:49N 49°17' W 122°57'0 0.0
2018-Jul-20 17:37N 49°17' W 122°57'0 0.0
2018-Jul-20 16:37N 49°17' W 122°57'0 0.0
2018-Jul-20 16:25N 49°17' W 122°57'0 0.0
2018-Jul-20 15:55N 49°17' W 122°57'0 0.0
2018-Jul-20 14:30N 49°17' W 122°57'1 1.6
2018-Jul-20 14:00N 49°18' W 122°56'0 0.2
2018-Jul-20 13:20N 49°18' W 122°56'0 0.2
2018-Jul-20 12:56N 49°18' W 122°56'0 0.0
2018-Jul-20 12:26N 49°18' W 122°56'0 0.1
2018-Jul-20 11:44N 49°18' W 122°56'0 0.1
2018-Jul-20 11:26N 49°18' W 122°56'0 0.2
2018-Jul-20 10:50N 49°18' W 122°56'0 0.0
2018-Jul-20 10:20N 49°18' W 122°56'0 0.1
2018-Jul-20 09:38N 49°18' W 122°56'0 0.0
2018-Jul-20 09:26N 49°18' W 122°56'0 0.0
2018-Jul-20 08:56N 49°18' W 122°56'0 0.1
2018-Jul-20 08:02N 49°18' W 122°56'2 1.5
2018-Jul-20 07:00N 49°18' W 122°54'1 8.1 130 / 21019.010.8 16.012.412.9
2018-Jul-20 06:50N 49°18' W 122°56'0 0.1
2018-Jul-20 06:26N 49°18' W 122°56'0 0.0
2018-Jul-20 05:44N 49°18' W 122°56'0 0.0
2018-Jul-20 03:32N 49°18' W 122°56'0 0.0
2018-Jul-20 03:26N 49°18' W 122°56'614.3
2018-Jul-20 03:00N 49°12' W 122°54'692.3 210 / 41019.310.8 19.011.8
2018-Jul-20 02:56N 49°18' W 122°56'0 0.2
2018-Jul-20 02:20N 49°18' W 122°56'0 0.1
2018-Jul-20 00:07N 49°18' W 122°56'0 0.0
2018-Jul-19 23:49N 49°18' W 122°56'0 0.0
2018-Jul-19 23:19N 49°18' W 122°56'0 0.1
2018-Jul-19 22:55N 49°18' W 122°56'0 0.1
2018-Jul-19 22:19N 49°18' W 122°56'0 0.0
2018-Jul-19 21:55N 49°18' W 122°56'0 0.1
2018-Jul-19 20:19N 49°18' W 122°56'0 0.1
2018-Jul-19 19:55N 49°18' W 122°56'0 0.1
2018-Jul-19 19:25N 49°18' W 122°56'1 3.5
2018-Jul-19 19:00N 49°18' W 122°54'1 5.4 150 / 61020.6 5.4 18.011.412.9
2018-Jul-19 18:43N 49°18' W 122°56'0 0.0
2018-Jul-19 18:25N 49°18' W 122°56'0 0.0
2018-Jul-19 17:37N 49°18' W 122°56'0 0.2
2018-Jul-19 17:25N 49°18' W 122°56'0 0.1
2018-Jul-19 16:01N 49°18' W 122°56'0 0.0
2018-Jul-19 15:43N 49°18' W 122°56'0 0.0
2018-Jul-19 15:25N 49°18' W 122°56'0 0.2
2018-Jul-19 14:55N 49°18' W 122°56'0 0.0
2018-Jul-19 14:25N 49°18' W 122°56'0 0.0
2018-Jul-19 13:19N 49°18' W 122°56'0 0.1
2018-Jul-19 12:19N 49°18' W 122°56'0 0.0
2018-Jul-19 11:43N 49°18' W 122°56'0 0.0
2018-Jul-19 11:19N 49°18' W 122°56'0 0.0
2018-Jul-19 10:49N 49°18' W 122°56'0 0.1
2018-Jul-19 10:25N 49°18' W 122°56'0 0.0
2018-Jul-19 09:19N 49°18' W 122°56'0 0.1
2018-Jul-19 07:37N 49°18' W 122°56'0 0.1
2018-Jul-19 07:19N 49°18' W 122°56'2 4.7
2018-Jul-19 07:00N 49°18' W 122°54'1 1.7 130 / 101018.510.8 18.512.212.8
2018-Jul-19 06:07N 49°18' W 122°56'0 0.1
2018-Jul-19 05:55N 49°18' W 122°56'0 0.2
2018-Jul-19 05:19N 49°18' W 122°56'0 0.2
2018-Jul-19 04:49N 49°18' W 122°56'0 0.0
2018-Jul-19 00:07N 49°18' W 122°56'0 0.2
2018-Jul-18 23:31N 49°18' W 122°56'0 0.0
2018-Jul-18 23:07N 49°18' W 122°56'0 0.1
2018-Jul-18 22:49N 49°18' W 122°56'0 0.1
2018-Jul-18 22:07N 49°18' W 122°56'0 0.0
2018-Jul-18 21:55N 49°18' W 122°56'0 0.1
2018-Jul-18 21:25N 49°18' W 122°56'0 0.0
2018-Jul-18 20:43N 49°18' W 122°56'0 0.0
2018-Jul-18 20:01N 49°18' W 122°56'0 0.0
2018-Jul-18 19:55N 49°18' W 122°56'0 0.1
2018-Jul-18 19:25N 49°18' W 122°56'0 0.1
2018-Jul-18 18:43N 49°18' W 122°56'0 0.3
2018-Jul-18 18:30N 49°18' W 122°56'0 0.1
2018-Jul-18 18:00N 49°18' W 122°56'2 3.7
2018-Jul-18 17:30N 49°18' W 122°59'3 5.4
2018-Jul-18 17:00N 49°18' W 123°03'3 6.6
2018-Jul-18 16:30N 49°19' W 123°08'4 8.3
2018-Jul-18 15:58N 49°18' W 123°15'710.7
2018-Jul-18 15:20N 49°12' W 123°20'512.7
2018-Jul-18 14:57N 49°08' W 123°20'614.0
2018-Jul-18 14:30N 49°02' W 123°17'3014.9
2018-Jul-18 12:28N 48°41' W 122°43'612.6
2018-Jul-18 12:00N 48°37' W 122°36'1 2.7
2018-Jul-18 11:31N 48°37' W 122°34'0 0.1
2018-Jul-18 09:15N 48°37' W 122°34'0 0.0
2018-Jul-18 08:21N 48°37' W 122°34'0 0.0
2018-Jul-18 07:09N 48°37' W 122°34'0 0.0
2018-Jul-18 06:45N 48°37' W 122°34'0 0.0
2018-Jul-18 06:15N 48°37' W 122°34'0 0.0
2018-Jul-18 05:51N 48°37' W 122°34'0 0.1
2018-Jul-18 05:15N 48°37' W 122°34'0 0.2
2018-Jul-18 03:45N 48°37' W 122°34'3 3.7
2018-Jul-18 03:00N 48°36' W 122°30'368.3 220 / 161014.310.8 19.511.8
2018-Jul-18 02:57N 48°37' W 122°34'0 0.1
2018-Jul-18 02:24N 48°37' W 122°34'0 0.0
2018-Jul-18 00:57N 48°37' W 122°34'0 0.1
2018-Jul-18 00:27N 48°37' W 122°34'0 0.1
2018-Jul-17 23:48N 48°37' W 122°34'0 0.1
2018-Jul-17 23:27N 48°37' W 122°34'0 0.1
2018-Jul-17 21:57N 48°37' W 122°34'0 0.1
2018-Jul-17 21:27N 48°37' W 122°34'0 0.1
2018-Jul-17 20:03N 48°37' W 122°34'0 0.2
2018-Jul-17 19:51N 48°37' W 122°34'0 0.1
2018-Jul-17 19:15N 48°37' W 122°34'0 0.0
2018-Jul-17 18:57N 48°37' W 122°34'0 0.1
2018-Jul-17 16:27N 48°37' W 122°34'0 0.1
2018-Jul-17 15:45N 48°37' W 122°34'0 0.0
2018-Jul-17 15:30N 48°37' W 122°34'3 5.7
2018-Jul-17 15:00N 48°36' W 122°30'3 5.8 170 / 91015.510.8 16.012.4
2018-Jul-17 14:30N 48°37' W 122°34'0 0.1
2018-Jul-17 13:51N 48°37' W 122°34'0 0.0
2018-Jul-17 11:36N 48°37' W 122°34'0 0.0
2018-Jul-17 11:09N 48°37' W 122°34'0 0.0
2018-Jul-17 10:57N 48°37' W 122°34'0 0.0
2018-Jul-17 10:27N 48°37' W 122°34'0 0.1
2018-Jul-17 08:09N 48°37' W 122°34'0 0.1
2018-Jul-17 07:44N 48°37' W 122°34'3 3.9
2018-Jul-17 07:00N 48°36' W 122°30'3 1.6 170 / 101014.210.8 18.513.210.1
2018-Jul-17 05:14N 48°37' W 122°34'0 0.0
2018-Jul-17 04:56N 48°37' W 122°34'0 0.0
2018-Jul-17 03:20N 48°37' W 122°34'2 0.1
2018-Jul-16 15:00N 48°36' W 122°36'2 0.6 300 / 61016.310.8 18.512.2
2018-Jul-16 11:56N 48°37' W 122°34'0 0.1
2018-Jul-16 10:11N 48°37' W 122°34'0 0.1
2018-Jul-16 09:44N 48°37' W 122°34'0 0.1
2018-Jul-16 09:20N 48°37' W 122°34'0 0.1
2018-Jul-16 08:32N 48°37' W 122°34'3 1.9
2018-Jul-16 07:00N 48°36' W 122°30'3 6.2 220 / 41014.610.8 18.010.611.1
2018-Jul-16 06:32N 48°37' W 122°34'0 0.1
2018-Jul-16 06:26N 48°37' W 122°34'0 0.2
2018-Jul-16 05:56N 48°37' W 122°34'0 0.0
2018-Jul-15 23:32N 48°37' W 122°34'0 0.2
2018-Jul-15 23:17N 48°37' W 122°34'0 0.1
2018-Jul-15 19:07N 48°37' W 122°34'321.4
2018-Jul-15 19:00N 48°36' W 122°30'0 0.0 320 / 161016.910.8 17.513.111.1
2018-Jul-15 15:00N 48°36' W 122°30'0 0.0 230 / 21017.010.8 16.512.9
2018-Jul-15 11:00N 48°36' W 122°30'3 4.2 350 / 41016.210.8 16.512.012.5
2018-Jul-15 10:19N 48°37' W 122°34'0 0.0
2018-Jul-15 09:46N 48°37' W 122°34'3 1.0
2018-Jul-15 07:00N 48°36' W 122°30'315.9 170 / 41016.910.8 18.812.011.8
2018-Jul-15 06:49N 48°37' W 122°34'0 0.0
2018-Jul-15 06:19N 48°37' W 122°34'0 0.1
2018-Jul-15 05:55N 48°37' W 122°34'0 0.1
2018-Jul-15 05:25N 48°37' W 122°34'0 0.0
2018-Jul-15 03:01N 48°37' W 122°34'3118.9
2018-Jul-15 03:00N 48°36' W 122°30'316.1 020 / 121016.310.8 22.012.1
2018-Jul-15 02:49N 48°37' W 122°34'0 0.1
2018-Jul-15 02:25N 48°37' W 122°34'0 0.0
2018-Jul-15 01:49N 48°37' W 122°34'0 0.0
2018-Jul-15 01:25N 48°37' W 122°34'3 1.2
2018-Jul-14 23:00N 48°36' W 122°30'0 0.0 340 / 101018.610.8 24.512.412.5
2018-Jul-14 19:00N 48°36' W 122°30'3 1.9 320 / 211020.410.8 17.012.511.2
2018-Jul-14 17:31N 48°37' W 122°34'0 0.0
2018-Jul-14 17:19N 48°37' W 122°34'0 0.0
2018-Jul-14 16:49N 48°37' W 122°34'0 0.0
2018-Jul-14 16:19N 48°37' W 122°34'3 2.1
2018-Jul-14 15:00N 48°36' W 122°30'0 0.0 340 / 121020.710.8 16.512.0
2018-Jul-14 11:00N 48°36' W 122°30'0 0.0 340 / 171019.210.8 17.011.510.4
2018-Jul-14 07:00N 48°36' W 122°30'332.6 300 / 121018.210.8 15.011.312.3
2018-Jul-14 06:54N 48°37' W 122°34'0 0.0
2018-Jul-14 04:48N 48°37' W 122°34'0 0.0
2018-Jul-14 04:24N 48°37' W 122°34'3 2.0
2018-Jul-14 03:00N 48°36' W 122°30'0 0.0 360 / 51016.710.8 23.5 9.9
2018-Jul-13 23:00N 48°36' W 122°30'0 0.0 350 / 61017.610.8 23.014.612.0
2018-Jul-13 19:00N 48°36' W 122°30'314.6 320 / 61018.510.8 18.013.113.1
2018-Jul-13 18:48N 48°37' W 122°34'0 0.1
2018-Jul-13 17:18N 48°37' W 122°34'0 0.0
2018-Jul-13 17:00N 48°37' W 122°34'0 0.0
2018-Jul-13 16:30N 48°37' W 122°34'3 1.9
2018-Jul-13 15:00N 48°36' W 122°30'3 0.3 360 / 151017.610.8 17.012.5
2018-Jul-13 04:48N 48°37' W 122°34'0 0.0
2018-Jul-13 04:30N 48°37' W 122°34'0 0.0
2018-Jul-13 02:35N 48°37' W 122°34'0 0.0
2018-Jul-13 02:23N 48°37' W 122°34'  
Track history (hours):
 
Tides and Currents Weather Stations Pressure Air Temp Water Temp Dewpoint Dewpoint Depression Visibility Wind Speed Wind Dir Waves Ship Positions

British Robin

Last reported at 2018-Jul-23 00:07 UTC. Time now 2018-Jul-23 00:27 UTC.
Position N 49°19' W 123°11'.

Length 251.5 m; beam 43.9 m; draft 15 m.

Type: Tanker. MMSI: 232156000.

Date/timePositionNaut miles runAvg speedWind from/ knotsBaromVisibWave heightAir tempDewpointWater temp
2018-Jul-23 00:07N 49°19' W 123°11'2 6.9
2018-Jul-22 23:48N 49°19' W 123°08'2 8.2
2018-Jul-22 23:30N 49°18' W 123°04'3 5.3
2018-Jul-22 22:59N 49°18' W 122°60'1 3.0
2018-Jul-22 22:30N 49°18' W 122°58'1 1.2
2018-Jul-22 21:32N 49°19' W 122°56'0 0.0
2018-Jul-22 21:20N 49°19' W 122°56'0 0.0
2018-Jul-22 20:08N 49°19' W 122°56'0 0.1
2018-Jul-22 19:56N 49°19' W 122°56'0 0.0
2018-Jul-22 18:44N 49°19' W 122°56'0 0.1
2018-Jul-22 18:26N 49°19' W 122°56'0 0.0
2018-Jul-22 17:56N 49°19' W 122°56'0 0.1
2018-Jul-22 17:20N 49°18' W 122°57'0 0.1
2018-Jul-22 16:32N 49°18' W 122°57'0 0.1
2018-Jul-22 16:28N 49°18' W 122°57'1 1.6
2018-Jul-22 15:58N 49°18' W 122°57'0 0.0
2018-Jul-21 03:31N 49°17' W 122°57'0 0.0
2018-Jul-21 03:01N 49°17' W 122°57'0 0.0
2018-Jul-21 02:37N 49°17' W 122°57'0 0.0
2018-Jul-21 02:25N 49°17' W 122°57'0 0.0
2018-Jul-21 01:49N 49°17' W 122°57'0 0.0
2018-Jul-21 00:31N 49°17' W 122°57'0 0.0
2018-Jul-21 00:07N 49°17' W 122°57'0 0.0
2018-Jul-20 22:01N 49°17' W 122°57'0 0.0
2018-Jul-20 19:55N 49°17' W 122°57'0 0.0
2018-Jul-20 19:25N 49°17' W 122°57'0 0.0
2018-Jul-20 18:49N 49°17' W 122°57'0 0.0
2018-Jul-20 17:37N 49°17' W 122°57'0 0.0
2018-Jul-20 16:37N 49°17' W 122°57'0 0.0
2018-Jul-20 16:25N 49°17' W 122°57'0 0.0
2018-Jul-20 15:55N 49°17' W 122°57'0 0.0
2018-Jul-20 14:30N 49°17' W 122°57'1 1.6
2018-Jul-20 14:00N 49°18' W 122°56'0 0.2
2018-Jul-20 13:20N 49°18' W 122°56'0 0.2
2018-Jul-20 12:56N 49°18' W 122°56'0 0.0
2018-Jul-20 12:26N 49°18' W 122°56'0 0.1
2018-Jul-20 11:44N 49°18' W 122°56'0 0.1
2018-Jul-20 11:26N 49°18' W 122°56'0 0.2
2018-Jul-20 10:50N 49°18' W 122°56'0 0.0
2018-Jul-20 10:20N 49°18' W 122°56'0 0.1
2018-Jul-20 09:38N 49°18' W 122°56'0 0.0
2018-Jul-20 09:26N 49°18' W 122°56'0 0.0
2018-Jul-20 08:56N 49°18' W 122°56'0 0.1
2018-Jul-20 08:02N 49°18' W 122°56'2 1.5
2018-Jul-20 07:00N 49°18' W 122°54'1 8.1 130 / 21019.010.8 16.012.412.9
2018-Jul-20 06:50N 49°18' W 122°56'0 0.1
2018-Jul-20 06:26N 49°18' W 122°56'0 0.0
2018-Jul-20 05:44N 49°18' W 122°56'0 0.0
2018-Jul-20 03:32N 49°18' W 122°56'0 0.0
2018-Jul-20 03:26N 49°18' W 122°56'614.3
2018-Jul-20 03:00N 49°12' W 122°54'692.3 210 / 41019.310.8 19.011.8
2018-Jul-20 02:56N 49°18' W 122°56'0 0.2
2018-Jul-20 02:20N 49°18' W 122°56'0 0.1
2018-Jul-20 00:07N 49°18' W 122°56'0 0.0
2018-Jul-19 23:49N 49°18' W 122°56'0 0.0
2018-Jul-19 23:19N 49°18' W 122°56'0 0.1
2018-Jul-19 22:55N 49°18' W 122°56'0 0.1
2018-Jul-19 22:19N 49°18' W 122°56'0 0.0
2018-Jul-19 21:55N 49°18' W 122°56'0 0.1
2018-Jul-19 20:19N 49°18' W 122°56'0 0.1
2018-Jul-19 19:55N 49°18' W 122°56'0 0.1
2018-Jul-19 19:25N 49°18' W 122°56'1 3.5
2018-Jul-19 19:00N 49°18' W 122°54'1 5.4 150 / 61020.6 5.4 18.011.412.9
2018-Jul-19 18:43N 49°18' W 122°56'0 0.0
2018-Jul-19 18:25N 49°18' W 122°56'0 0.0
2018-Jul-19 17:37N 49°18' W 122°56'0 0.2
2018-Jul-19 17:25N 49°18' W 122°56'0 0.1
2018-Jul-19 16:01N 49°18' W 122°56'0 0.0
2018-Jul-19 15:43N 49°18' W 122°56'0 0.0
2018-Jul-19 15:25N 49°18' W 122°56'0 0.2
2018-Jul-19 14:55N 49°18' W 122°56'0 0.0
2018-Jul-19 14:25N 49°18' W 122°56'0 0.0
2018-Jul-19 13:19N 49°18' W 122°56'0 0.1
2018-Jul-19 12:19N 49°18' W 122°56'0 0.0
2018-Jul-19 11:43N 49°18' W 122°56'0 0.0
2018-Jul-19 11:19N 49°18' W 122°56'0 0.0
2018-Jul-19 10:49N 49°18' W 122°56'0 0.1
2018-Jul-19 10:25N 49°18' W 122°56'0 0.0
2018-Jul-19 09:19N 49°18' W 122°56'0 0.1
2018-Jul-19 07:37N 49°18' W 122°56'0 0.1
2018-Jul-19 07:19N 49°18' W 122°56'2 4.7
2018-Jul-19 07:00N 49°18' W 122°54'1 1.7 130 / 101018.510.8 18.512.212.8
2018-Jul-19 06:07N 49°18' W 122°56'0 0.1
2018-Jul-19 05:55N 49°18' W 122°56'0 0.2
2018-Jul-19 05:19N 49°18' W 122°56'0 0.2
2018-Jul-19 04:49N 49°18' W 122°56'0 0.0
2018-Jul-19 00:07N 49°18' W 122°56'0 0.2
2018-Jul-18 23:31N 49°18' W 122°56'0 0.0
2018-Jul-18 23:07N 49°18' W 122°56'0 0.1
2018-Jul-18 22:49N 49°18' W 122°56'0 0.1
2018-Jul-18 22:07N 49°18' W 122°56'0 0.0
2018-Jul-18 21:55N 49°18' W 122°56'0 0.1
2018-Jul-18 21:25N 49°18' W 122°56'0 0.0
2018-Jul-18 20:43N 49°18' W 122°56'0 0.0
2018-Jul-18 20:01N 49°18' W 122°56'0 0.0
2018-Jul-18 19:55N 49°18' W 122°56'0 0.1
2018-Jul-18 19:25N 49°18' W 122°56'0 0.1
2018-Jul-18 18:43N 49°18' W 122°56'0 0.3
2018-Jul-18 18:30N 49°18' W 122°56'0 0.1
2018-Jul-18 18:00N 49°18' W 122°56'2 3.7
2018-Jul-18 17:30N 49°18' W 122°59'3 5.4
2018-Jul-18 17:00N 49°18' W 123°03'3 6.6
2018-Jul-18 16:30N 49°19' W 123°08'4 8.3
2018-Jul-18 15:58N 49°18' W 123°15'710.7
2018-Jul-18 15:20N 49°12' W 123°20'512.7
2018-Jul-18 14:57N 49°08' W 123°20'614.0
2018-Jul-18 14:30N 49°02' W 123°17'3014.9
2018-Jul-18 12:28N 48°41' W 122°43'612.6
2018-Jul-18 12:00N 48°37' W 122°36'1 2.7
2018-Jul-18 11:31N 48°37' W 122°34'0 0.1
2018-Jul-18 09:15N 48°37' W 122°34'0 0.0
2018-Jul-18 08:21N 48°37' W 122°34'0 0.0
2018-Jul-18 07:09N 48°37' W 122°34'0 0.0
2018-Jul-18 06:45N 48°37' W 122°34'0 0.0
2018-Jul-18 06:15N 48°37' W 122°34'0 0.0
2018-Jul-18 05:51N 48°37' W 122°34'0 0.1
2018-Jul-18 05:15N 48°37' W 122°34'0 0.2
2018-Jul-18 03:45N 48°37' W 122°34'3 3.7
2018-Jul-18 03:00N 48°36' W 122°30'368.3 220 / 161014.310.8 19.511.8
2018-Jul-18 02:57N 48°37' W 122°34'0 0.1
2018-Jul-18 02:24N 48°37' W 122°34'0 0.0
2018-Jul-18 00:57N 48°37' W 122°34'0 0.1
2018-Jul-18 00:27N 48°37' W 122°34'0 0.1
2018-Jul-17 23:48N 48°37' W 122°34'0 0.1
2018-Jul-17 23:27N 48°37' W 122°34'0 0.1
2018-Jul-17 21:57N 48°37' W 122°34'0 0.1
2018-Jul-17 21:27N 48°37' W 122°34'0 0.1
2018-Jul-17 20:03N 48°37' W 122°34'0 0.2
2018-Jul-17 19:51N 48°37' W 122°34'0 0.1
2018-Jul-17 19:15N 48°37' W 122°34'0 0.0
2018-Jul-17 18:57N 48°37' W 122°34'0 0.1
2018-Jul-17 16:27N 48°37' W 122°34'0 0.1
2018-Jul-17 15:45N 48°37' W 122°34'0 0.0
2018-Jul-17 15:30N 48°37' W 122°34'3 5.7
2018-Jul-17 15:00N 48°36' W 122°30'3 5.8 170 / 91015.510.8 16.012.4
2018-Jul-17 14:30N 48°37' W 122°34'0 0.1
2018-Jul-17 13:51N 48°37' W 122°34'0 0.0
2018-Jul-17 11:36N 48°37' W 122°34'0 0.0
2018-Jul-17 11:09N 48°37' W 122°34'0 0.0
2018-Jul-17 10:57N 48°37' W 122°34'0 0.0
2018-Jul-17 10:27N 48°37' W 122°34'0 0.1
2018-Jul-17 08:09N 48°37' W 122°34'0 0.1
2018-Jul-17 07:44N 48°37' W 122°34'3 3.9
2018-Jul-17 07:00N 48°36' W 122°30'3 1.6 170 / 101014.210.8 18.513.210.1
2018-Jul-17 05:14N 48°37' W 122°34'0 0.0
2018-Jul-17 04:56N 48°37' W 122°34'0 0.0
2018-Jul-17 03:20N 48°37' W 122°34'2 0.1
2018-Jul-16 15:00N 48°36' W 122°36'2 0.6 300 / 61016.310.8 18.512.2
2018-Jul-16 11:56N 48°37' W 122°34'0 0.1
2018-Jul-16 10:11N 48°37' W 122°34'0 0.1
2018-Jul-16 09:44N 48°37' W 122°34'0 0.1
2018-Jul-16 09:20N 48°37' W 122°34'0 0.1
2018-Jul-16 08:32N 48°37' W 122°34'3 1.9
2018-Jul-16 07:00N 48°36' W 122°30'3 6.2 220 / 41014.610.8 18.010.611.1
2018-Jul-16 06:32N 48°37' W 122°34'0 0.1
2018-Jul-16 06:26N 48°37' W 122°34'0 0.2
2018-Jul-16 05:56N 48°37' W 122°34'0 0.0
2018-Jul-15 23:32N 48°37' W 122°34'0 0.2
2018-Jul-15 23:17N 48°37' W 122°34'0 0.1
2018-Jul-15 19:07N 48°37' W 122°34'321.4
2018-Jul-15 19:00N 48°36' W 122°30'0 0.0 320 / 161016.910.8 17.513.111.1
2018-Jul-15 15:00N 48°36' W 122°30'0 0.0 230 / 21017.010.8 16.512.9
2018-Jul-15 11:00N 48°36' W 122°30'3 4.2 350 / 41016.210.8 16.512.012.5
2018-Jul-15 10:19N 48°37' W 122°34'0 0.0
2018-Jul-15 09:46N 48°37' W 122°34'3 1.0
2018-Jul-15 07:00N 48°36' W 122°30'315.9 170 / 41016.910.8 18.812.011.8
2018-Jul-15 06:49N 48°37' W 122°34'0 0.0
2018-Jul-15 06:19N 48°37' W 122°34'0 0.1
2018-Jul-15 05:55N 48°37' W 122°34'0 0.1
2018-Jul-15 05:25N 48°37' W 122°34'0 0.0
2018-Jul-15 03:01N 48°37' W 122°34'3118.9
2018-Jul-15 03:00N 48°36' W 122°30'316.1 020 / 121016.310.8 22.012.1
2018-Jul-15 02:49N 48°37' W 122°34'0 0.1
2018-Jul-15 02:25N 48°37' W 122°34'0 0.0
2018-Jul-15 01:49N 48°37' W 122°34'0 0.0
2018-Jul-15 01:25N 48°37' W 122°34'3 1.2
2018-Jul-14 23:00N 48°36' W 122°30'0 0.0 340 / 101018.610.8 24.512.412.5
2018-Jul-14 19:00N 48°36' W 122°30'3 1.9 320 / 211020.410.8 17.012.511.2
2018-Jul-14 17:31N 48°37' W 122°34'0 0.0
2018-Jul-14 17:19N 48°37' W 122°34'0 0.0
2018-Jul-14 16:49N 48°37' W 122°34'0 0.0
2018-Jul-14 16:19N 48°37' W 122°34'3 2.1
2018-Jul-14 15:00N 48°36' W 122°30'0 0.0 340 / 121020.710.8 16.512.0
2018-Jul-14 11:00N 48°36' W 122°30'0 0.0 340 / 171019.210.8 17.011.510.4
2018-Jul-14 07:00N 48°36' W 122°30'332.6 300 / 121018.210.8 15.011.312.3
2018-Jul-14 06:54N 48°37' W 122°34'0 0.0
2018-Jul-14 04:48N 48°37' W 122°34'0 0.0
2018-Jul-14 04:24N 48°37' W 122°34'3 2.0
2018-Jul-14 03:00N 48°36' W 122°30'0 0.0 360 / 51016.710.8 23.5 9.9
2018-Jul-13 23:00N 48°36' W 122°30'0 0.0 350 / 61017.610.8 23.014.612.0
2018-Jul-13 19:00N 48°36' W 122°30'314.6 320 / 61018.510.8 18.013.113.1
2018-Jul-13 18:48N 48°37' W 122°34'0 0.1
2018-Jul-13 17:18N 48°37' W 122°34'0 0.0
2018-Jul-13 17:00N 48°37' W 122°34'0 0.0
2018-Jul-13 16:30N 48°37' W 122°34'3 1.9
2018-Jul-13 15:00N 48°36' W 122°30'3 0.3 360 / 151017.610.8 17.012.5
2018-Jul-13 04:48N 48°37' W 122°34'0 0.0
2018-Jul-13 04:30N 48°37' W 122°34'0 0.0
2018-Jul-13 02:35N 48°37' W 122°34'0 0.0
2018-Jul-13 02:23N 48°37' W 122°34'  

Dump ship's entire track history